EGHI/SOU METAR and TAF weather

Enter ICAO airport designator
Station Type Date Time Source
EGHI METAR 2020/11/26 18:20 UTC NOAA

EGHI 261820Z 02002KT CAVOK 06/05 Q1021


Station Type Date Time Source
EGHI Decoded METAR 2020/11/26 18:20 UTC NOAA

Southampton / Weather Centre, United Kingdom (EGHI) 50-54N 001-24W 0M
Nov 26, 2020 - 01:20 PM EST / 2020.11.26 1820 UTC
Wind: from the NNE (020 degrees) at 2 MPH (2 KT):0
Visibility: greater than 7 mile(s):0
Temperature: 42 F (6 C)
Dew Point: 41 F (5 C)
Relative Humidity: 93%
Pressure (altimeter): 30.15 in. Hg (1021 hPa)
ob: EGHI 261820Z 02002KT CAVOK 06/05 Q1021
cycle: 18

Station Type Date Time Source
EGHI TAF 2020/02/21 21:54 UTC NOAA

TAF EGHI 210345Z 2021/2123 CNL

Example: see airport list